Time;durP1;ratioP1;P1;durP2;ratioP2;P2;SDS_P1;SDS_P2;PMS_P1;PMS_P2;Temp;Humidity;BMP_temperature;BMP_pressure;BME280_temperature;BME280_humidity;BME280_pressure;Samples;Min_cycle;Max_cycle;Signal;HPM_P1;HPM_P2
2022/01/31 00:00:30;;;;;;;12.25;5.40;;;;;;;1.74;98.25;99101.00;5071914;28;20344;-67
2022/01/31 00:02:55;;;;;;;13.38;4.13;;;;;;;1.84;98.30;99102.97;5072642;28;20256;-67
2022/01/31 00:05:21;;;;;;;11.43;4.05;;;;;;;1.94;97.87;99091.94;5070417;28;20064;-67
2022/01/31 00:07:46;;;;;;;13.75;4.60;;;;;;;1.96;97.49;99088.53;5076590;28;20115;-67
2022/01/31 00:10:13;;;;;;;12.80;4.47;;;;;;;1.95;97.33;99093.69;5082305;28;20044;-67
2022/01/31 00:12:59;;;;;;;13.88;5.07;;;;;;;2.00;97.30;99064.38;5080798;28;20047;-67
2022/01/31 00:15:24;;;;;;;10.35;3.83;;;;;;;1.96;97.47;99064.28;5080294;28;20039;-67
2022/01/31 00:17:50;;;;;;;17.83;4.47;;;;;;;2.00;97.11;99066.97;5079473;28;20013;-67
2022/01/31 00:20:16;;;;;;;16.83;4.25;;;;;;;2.04;97.05;99086.09;5079397;28;20012;-67
2022/01/31 00:22:41;;;;;;;15.95;5.20;;;;;;;2.01;96.85;99070.44;5078213;28;20081;-67
2022/01/31 00:25:07;;;;;;;15.77;5.30;;;;;;;2.02;97.37;99061.81;5074917;28;20024;-67
2022/01/31 00:27:33;;;;;;;27.70;5.38;;;;;;;2.00;97.13;99058.31;5070209;28;20028;-67
2022/01/31 00:29:58;;;;;;;24.15;4.93;;;;;;;2.08;97.28;99038.56;5069574;28;20036;-67
2022/01/31 00:32:23;;;;;;;15.68;5.15;;;;;;;2.05;97.29;99025.53;5074058;28;20017;-67
2022/01/31 00:34:49;;;;;;;20.08;5.97;;;;;;;1.99;97.06;99015.91;5076239;28;20040;-67
2022/01/31 00:37:15;;;;;;;10.80;3.92;;;;;;;2.04;97.28;99021.19;5070781;28;20020;-67
2022/01/31 00:39:40;;;;;;;14.60;5.55;;;;;;;2.02;96.96;99013.38;5074812;28;20306;-67
2022/01/31 00:42:07;;;;;;;24.55;6.32;;;;;;;2.01;97.19;98997.75;5076324;28;20017;-67
2022/01/31 00:44:49;;;;;;;23.60;5.80;;;;;;;2.06;97.30;98958.06;5074294;28;20028;-67
2022/01/31 00:47:26;;;;;;;18.05;5.28;;;;;;;2.11;97.37;98952.97;5081573;28;20236;-67
2022/01/31 00:50:15;;;;;;;25.65;5.45;;;;;;;2.09;97.43;98933.91;5076029;28;20024;-67
2022/01/31 00:52:39;;;;;;;15.55;4.60;;;;;;;2.15;97.22;98934.00;5070502;28;20036;-67
2022/01/31 00:55:07;;;;;;;17.23;5.20;;;;;;;2.19;97.89;98921.09;5078538;28;20025;-67
2022/01/31 00:57:33;;;;;;;13.18;4.90;;;;;;;2.23;97.73;98924.63;5079791;28;20020;-67
2022/01/31 00:59:58;;;;;;;26.77;4.80;;;;;;;2.20;97.49;98917.66;5075313;28;20047;-67
2022/01/31 01:02:25;;;;;;;19.00;5.57;;;;;;;2.27;97.53;98908.25;5076105;28;20036;-67
2022/01/31 01:04:51;;;;;;;26.15;5.65;;;;;;;2.34;97.48;98893.66;5074099;28;20359;-67
2022/01/31 01:07:20;;;;;;;15.48;5.30;;;;;;;2.25;97.83;98864.06;5077854;28;20031;-67
2022/01/31 01:09:46;;;;;;;10.65;4.93;;;;;;;2.40;98.17;98842.66;5072187;28;20040;-67
2022/01/31 01:12:13;;;;;;;14.63;4.43;;;;;;;2.28;97.59;98837.31;5077913;28;20239;-67
2022/01/31 01:14:39;;;;;;;16.50;5.75;;;;;;;2.35;97.77;98813.19;5073951;28;20017;-67
2022/01/31 01:17:05;;;;;;;19.17;4.35;;;;;;;2.37;97.46;98827.03;5074362;28;20056;-67
2022/01/31 01:19:30;;;;;;;17.40;4.30;;;;;;;2.39;97.41;98827.94;5079413;28;20077;-67
2022/01/31 01:21:56;;;;;;;25.80;6.05;;;;;;;2.39;97.48;98820.16;5075468;28;20320;-67
2022/01/31 01:24:21;;;;;;;17.90;4.82;;;;;;;2.43;97.46;98805.50;5073824;28;20338;-67
2022/01/31 01:26:48;;;;;;;23.20;4.60;;;;;;;2.45;97.23;98783.88;5078867;28;20028;-67
2022/01/31 01:29:13;;;;;;;16.83;5.95;;;;;;;2.45;97.06;98791.69;5080113;28;20024;-67
2022/01/31 01:31:39;;;;;;;21.08;5.80;;;;;;;2.49;97.18;98790.88;5078463;28;20021;-67
2022/01/31 01:34:05;;;;;;;20.02;4.03;;;;;;;2.50;97.48;98787.41;5075154;28;20024;-67
2022/01/31 01:36:32;;;;;;;16.77;4.90;;;;;;;2.53;96.83;98782.25;5070440;28;20028;-67
2022/01/31 01:38:57;;;;;;;12.65;4.90;;;;;;;2.57;96.60;98778.88;5077335;28;20080;-67
2022/01/31 01:41:23;;;;;;;21.13;5.40;;;;;;;2.58;96.37;98775.41;5077170;28;20267;-67
2022/01/31 01:43:49;;;;;;;9.95;5.03;;;;;;;2.58;96.57;98762.44;5076278;28;20048;-67
2022/01/31 01:46:14;;;;;;;29.00;6.35;;;;;;;2.61;96.39;98749.47;5075067;28;20043;-67
2022/01/31 01:48:40;;;;;;;17.08;5.90;;;;;;;2.68;96.38;98748.69;5079710;28;20039;-67
2022/01/31 01:51:06;;;;;;;28.48;5.68;;;;;;;2.76;96.22;98734.09;5077414;28;20347;-67
2022/01/31 01:53:31;;;;;;;27.50;5.75;;;;;;;2.67;95.98;98728.78;5071368;28;20084;-67
2022/01/31 01:55:57;;;;;;;6.25;3.65;;;;;;;2.76;96.40;98726.31;5075797;28;20024;-68
2022/01/31 01:58:26;;;;;;;13.45;4.68;;;;;;;2.83;96.99;98728.13;5078651;28;20034;-68
2022/01/31 02:01:04;;;;;;;15.02;5.63;;;;;;;2.69;96.20;98715.81;5077731;28;20047;-67
2022/01/31 02:03:32;;;;;;;17.65;4.57;;;;;;;2.81;96.38;98690.81;5080189;28;20051;-67
2022/01/31 02:05:58;;;;;;;15.13;5.18;;;;;;;2.70;96.28;98671.66;5069271;28;20227;-67
2022/01/31 02:08:25;;;;;;;20.02;5.60;;;;;;;2.87;96.88;98667.50;5076354;28;20027;-67
2022/01/31 02:10:51;;;;;;;9.80;4.10;;;;;;;2.89;95.23;98667.53;5071284;28;20028;-67
2022/01/31 02:13:17;;;;;;;32.25;5.47;;;;;;;2.91;95.81;98655.44;5068858;28;20052;-67
2022/01/31 02:15:51;;;;;;;9.25;3.75;;;;;;;2.94;96.24;98640.72;5076738;28;20125;-67
2022/01/31 02:18:20;;;;;;;23.52;5.53;;;;;;;2.95;95.16;98642.50;5071364;28;20062;-67
2022/01/31 02:20:45;;;;;;;9.43;3.75;;;;;;;2.99;95.59;98620.84;5070112;28;20339;-67
2022/01/31 02:23:13;;;;;;;12.30;4.05;;;;;;;3.07;94.71;98611.38;5071142;28;20040;-67
2022/01/31 02:26:01;;;;;;;10.55;3.80;;;;;;;3.00;94.68;98599.19;5077590;28;20028;-67
2022/01/31 02:28:28;;;;;;;25.05;3.65;;;;;;;3.12;94.42;98583.72;5070970;28;20312;-67
2022/01/31 02:30:54;;;;;;;8.85;3.75;;;;;;;3.16;94.74;98563.81;5068697;28;20024;-67
2022/01/31 02:33:21;;;;;;;16.92;5.13;;;;;;;3.17;94.28;98543.03;5074126;28;20055;-67
2022/01/31 02:35:52;;;;;;;16.00;4.07;;;;;;;3.32;93.45;98535.31;5070823;28;20021;-67
2022/01/31 02:38:18;;;;;;;9.90;3.38;;;;;;;3.24;93.07;98537.03;5068111;28;20025;-67
2022/01/31 02:40:45;;;;;;;16.27;4.55;;;;;;;3.25;93.50;98533.53;5077395;28;20027;-67
2022/01/31 02:43:12;;;;;;;15.35;3.65;;;;;;;3.08;94.17;98514.34;5070544;28;20106;-67
2022/01/31 02:45:37;;;;;;;11.52;3.80;;;;;;;3.34;93.90;98506.72;5075133;28;20043;-67
2022/01/31 02:48:04;;;;;;;7.80;3.35;;;;;;;3.40;93.18;98471.22;5076947;28;20027;-67
2022/01/31 02:50:29;;;;;;;10.43;4.22;;;;;;;3.33;92.74;98464.25;5074475;28;20080;-68
2022/01/31 02:53:31;;;;;;;15.27;3.33;;;;;;;3.41;93.40;98457.34;5069778;28;20071;-68
2022/01/31 02:55:47;;;;;;;16.30;4.07;;;;;;;3.50;92.44;98473.03;5073811;28;20032;-67
2022/01/31 02:58:13;;;;;;;17.42;3.75;;;;;;;3.42;92.88;98487.69;5073595;28;20477;-67
2022/01/31 03:00:39;;;;;;;12.55;3.65;;;;;;;3.44;92.50;98499.00;5072007;28;20029;-67
2022/01/31 03:03:05;;;;;;;12.88;3.05;;;;;;;3.43;92.65;98501.59;5072069;28;20024;-67
2022/01/31 03:05:31;;;;;;;9.73;3.33;;;;;;;3.43;92.45;98507.69;5075853;28;20024;-67
2022/01/31 03:07:56;;;;;;;20.33;4.22;;;;;;;3.33;93.39;98500.69;5072931;28;20032;-67
2022/01/31 03:10:22;;;;;;;15.85;3.50;;;;;;;3.39;92.80;98495.47;5076605;28;20012;-67
2022/01/31 03:12:48;;;;;;;13.20;3.78;;;;;;;3.33;93.03;98495.47;5070682;28;20067;-67
2022/01/31 03:15:13;;;;;;;10.45;2.53;;;;;;;3.33;93.65;98497.19;5077696;28;20205;-67
2022/01/31 03:17:42;;;;;;;17.92;3.90;;;;;;;3.30;93.49;98481.56;5077933;28;20020;-67
2022/01/31 03:20:08;;;;;;;4.35;2.40;;;;;;;3.37;93.32;98485.94;5070593;28;20020;-67
2022/01/31 03:22:34;;;;;;;13.40;3.45;;;;;;;3.35;93.60;98492.88;5075803;28;20425;-67
2022/01/31 03:24:59;;;;;;;7.75;3.38;;;;;;;3.38;93.28;98492.88;5075296;28;20024;-67
2022/01/31 03:27:25;;;;;;;9.77;3.38;;;;;;;3.49;93.00;98492.09;5077453;28;20410;-67
2022/01/31 03:29:50;;;;;;;10.50;3.50;;;;;;;3.48;93.54;98490.34;5070397;28;20330;-67
2022/01/31 03:32:15;;;;;;;21.33;3.83;;;;;;;3.43;93.62;98484.25;5077401;28;20059;-67
2022/01/31 03:34:41;;;;;;;12.20;3.65;;;;;;;3.45;93.31;98482.53;5070545;28;20027;-67
2022/01/31 03:37:07;;;;;;;9.13;3.13;;;;;;;3.49;93.45;98475.63;5072449;28;20020;-67
2022/01/31 03:39:32;;;;;;;10.77;2.95;;;;;;;3.50;93.44;98466.94;5070711;28;20341;-67
2022/01/31 03:41:58;;;;;;;10.63;3.53;;;;;;;3.49;93.15;98466.09;5072365;28;20084;-67
2022/01/31 03:44:24;;;;;;;8.65;2.83;;;;;;;3.45;93.86;98453.91;5079212;28;20028;-67
2022/01/31 03:46:49;;;;;;;13.75;4.15;;;;;;;3.48;93.36;98458.28;5075594;28;20308;-67
2022/01/31 03:49:14;;;;;;;11.23;2.80;;;;;;;3.54;93.31;98459.16;5077131;28;20054;-67
2022/01/31 03:51:40;;;;;;;21.17;3.55;;;;;;;3.51;93.47;98442.69;5074239;28;20087;-67
2022/01/31 03:54:05;;;;;;;12.10;2.97;;;;;;;3.53;94.06;98441.81;5071327;28;20028;-67
2022/01/31 03:56:31;;;;;;;12.25;4.22;;;;;;;3.51;94.15;98433.13;5074504;28;20012;-67
2022/01/31 03:58:56;;;;;;;8.23;2.40;;;;;;;3.62;93.52;98410.66;5076352;28;20017;-67
2022/01/31 04:01:23;;;;;;;13.10;3.08;;;;;;;3.70;93.52;98408.94;5072548;28;20020;-67
2022/01/31 04:03:49;;;;;;;11.32;2.78;;;;;;;3.68;93.83;98405.47;5072243;28;20085;-67
2022/01/31 04:06:14;;;;;;;10.32;2.53;;;;;;;3.63;93.29;98390.69;5073254;28;20021;-67
2022/01/31 04:08:40;;;;;;;21.73;3.95;;;;;;;3.68;93.71;98386.38;5076021;28;20016;-67
2022/01/31 04:11:05;;;;;;;6.25;2.67;;;;;;;3.66;93.82;98369.88;5076105;28;20017;-67
2022/01/31 04:13:31;;;;;;;11.65;2.58;;;;;;;3.72;93.62;98368.19;5074431;28;20036;-67
2022/01/31 04:15:56;;;;;;;10.93;2.63;;;;;;;3.72;94.15;98364.69;5069896;28;20021;-67
2022/01/31 04:18:22;;;;;;;9.48;2.47;;;;;;;3.75;93.83;98360.38;5073104;28;20027;-67
2022/01/31 04:20:47;;;;;;;19.45;2.97;;;;;;;3.81;93.95;98369.94;5069822;28;20024;-67
2022/01/31 04:23:16;;;;;;;18.55;3.85;;;;;;;3.83;93.61;98353.44;5074028;28;20016;-67
2022/01/31 04:28:17;;;;;;;15.32;3.20;;;;;;;3.94;93.53;98335.25;5069396;28;20027;-67
2022/01/31 04:30:50;;;;;;;11.20;3.42;;;;;;;3.98;93.72;98305.75;5076266;28;20021;-67
2022/01/31 04:33:15;;;;;;;23.40;3.65;;;;;;;3.82;93.93;98302.25;5075829;28;20025;-67
2022/01/31 04:35:41;;;;;;;9.43;2.67;;;;;;;3.95;94.07;98296.19;5073804;28;20186;-67
2022/01/31 04:38:06;;;;;;;7.88;2.95;;;;;;;4.01;94.03;98277.09;5068147;28;20039;-67
2022/01/31 04:40:31;;;;;;;20.90;3.35;;;;;;;3.99;93.38;98282.31;5074454;28;20312;-67
2022/01/31 04:42:57;;;;;;;11.15;2.13;;;;;;;3.99;93.29;98286.66;5074024;28;20025;-67
2022/01/31 04:45:22;;;;;;;12.50;3.05;;;;;;;3.97;93.80;98263.25;5076632;28;20244;-67
2022/01/31 04:47:48;;;;;;;13.57;2.83;;;;;;;4.04;94.31;98259.75;5078330;28;20036;-67
2022/01/31 04:50:13;;;;;;;9.30;2.30;;;;;;;4.11;94.24;98255.41;5070539;28;20017;-67
2022/01/31 04:52:42;;;;;;;14.65;2.90;;;;;;;4.10;94.20;98244.13;5075201;28;20029;-67
2022/01/31 04:55:08;;;;;;;7.72;2.80;;;;;;;4.11;94.09;98235.44;5079475;28;20012;-67
2022/01/31 04:57:34;;;;;;;14.13;2.50;;;;;;;4.11;94.06;98225.03;5072324;28;20088;-67
2022/01/31 04:59:59;;;;;;;11.75;2.88;;;;;;;4.05;94.57;98213.78;5078266;28;20037;-67
2022/01/31 05:02:25;;;;;;;28.95;3.42;;;;;;;4.18;95.17;98211.13;5080667;28;20020;-67
2022/01/31 05:04:50;;;;;;;15.88;3.17;;;;;;;4.19;95.00;98207.69;5078714;28;20028;-67
2022/01/31 05:07:16;;;;;;;12.35;2.88;;;;;;;4.40;95.81;98218.03;5072914;28;20066;-65
2022/01/31 05:09:43;;;;;;;13.05;2.53;;;;;;;4.42;94.71;98205.91;5077456;28;20035;-66
2022/01/31 05:12:09;;;;;;;13.93;2.90;;;;;;;4.26;95.49;98193.78;5066734;28;20024;-66
2022/01/31 05:14:34;;;;;;;14.68;3.70;;;;;;;4.22;96.05;98186.84;5081586;28;20024;-66
2022/01/31 05:16:59;;;;;;;13.30;3.00;;;;;;;4.17;96.81;98191.19;5085804;28;20088;-66
2022/01/31 05:19:25;;;;;;;10.38;3.40;;;;;;;4.07;97.92;98189.47;5085949;28;20091;-66
2022/01/31 05:21:50;;;;;;;18.95;3.65;;;;;;;4.10;97.81;98181.66;5085690;28;20087;-66
2022/01/31 05:24:16;;;;;;;19.23;3.90;;;;;;;4.10;98.01;98185.97;5077399;28;20087;-66
2022/01/31 05:26:41;;;;;;;9.27;3.30;;;;;;;4.09;97.72;98189.47;5078459;28;20090;-66
2022/01/31 05:29:07;;;;;;;10.30;3.05;;;;;;;4.12;97.90;98166.88;5067478;28;20032;-66
2022/01/31 05:31:32;;;;;;;18.38;4.45;;;;;;;4.09;98.48;98187.69;5079411;28;20312;-66
2022/01/31 05:33:58;;;;;;;21.98;5.18;;;;;;;4.07;99.08;98180.75;5084377;28;20257;-66
2022/01/31 05:36:24;;;;;;;15.38;3.17;;;;;;;4.01;99.61;98181.66;5085450;28;20031;-66
2022/01/31 05:38:50;;;;;;;11.32;2.85;;;;;;;3.93;100.00;98167.75;5085515;28;20022;-66
2022/01/31 05:41:19;;;;;;;16.75;4.00;;;;;;;3.94;99.88;98153.88;5072930;28;20025;-66
2022/01/31 05:43:48;;;;;;;14.48;3.10;;;;;;;3.99;100.00;98170.34;5066069;28;20024;-66
2022/01/31 05:46:14;;;;;;;12.02;3.20;;;;;;;4.03;100.00;98182.53;5081212;28;20062;-66
2022/01/31 05:48:40;;;;;;;18.48;3.60;;;;;;;3.99;100.00;98172.97;5085184;28;20092;-66
2022/01/31 05:51:21;;;;;;;7.55;3.30;;;;;;;3.95;100.00;98176.44;5070934;28;20308;-66
2022/01/31 05:53:48;;;;;;;8.63;4.05;;;;;;;3.99;100.00;98177.31;5077295;28;20407;-66
2022/01/31 05:56:15;;;;;;;19.23;4.20;;;;;;;4.20;100.00;98178.16;5071693;28;20320;-66
2022/01/31 05:58:42;;;;;;;24.38;4.78;;;;;;;3.99;100.00;98182.53;5065657;28;20321;-66
2022/01/31 06:01:07;;;;;;;10.95;3.35;;;;;;;4.01;100.00;98181.66;5076458;28;20224;-66
2022/01/31 06:03:33;;;;;;;15.05;3.85;;;;;;;4.05;100.00;98192.94;5083591;28;20035;-66
2022/01/31 06:05:59;;;;;;;16.23;3.88;;;;;;;4.08;100.00;98193.78;5083697;28;20092;-66
2022/01/31 06:08:24;;;;;;;11.60;3.42;;;;;;;4.15;100.00;98195.50;5085047;28;20027;-66
2022/01/31 06:10:50;;;;;;;14.07;3.00;;;;;;;4.18;100.00;98173.81;5074572;28;20021;-66
2022/01/31 06:13:17;;;;;;;12.95;3.28;;;;;;;4.10;100.00;98171.22;5081763;28;20044;-66
2022/01/31 06:15:42;;;;;;;15.07;3.13;;;;;;;4.04;100.00;98197.28;5084673;28;20029;-66
2022/01/31 06:18:08;;;;;;;10.27;2.80;;;;;;;4.10;100.00;98197.25;5084884;28;20031;-66
2022/01/31 06:20:34;;;;;;;7.68;2.80;;;;;;;4.14;100.00;98204.19;5084417;28;20031;-66
2022/01/31 06:23:00;;;;;;;7.53;2.42;;;;;;;3.95;100.00;98202.47;5084737;28;20024;-66
2022/01/31 06:25:25;;;;;;;8.95;2.85;;;;;;;3.98;100.00;98186.84;5073229;28;20032;-66
2022/01/31 06:27:52;;;;;;;3.83;2.35;;;;;;;3.90;100.00;98183.38;5077970;28;20212;-66
2022/01/31 06:30:17;;;;;;;13.52;2.10;;;;;;;3.90;100.00;98188.56;5068863;28;20021;-66
2022/01/31 06:32:43;;;;;;;5.78;1.85;;;;;;;3.96;100.00;98185.97;5080152;28;20020;-66
2022/01/31 06:35:09;;;;;;;3.25;1.90;;;;;;;4.10;100.00;98196.38;5084524;28;20272;-66
2022/01/31 06:37:35;;;;;;;8.80;2.80;;;;;;;4.09;100.00;98177.28;5084269;28;20200;-66
2022/01/31 06:40:01;;;;;;;5.28;2.28;;;;;;;4.36;100.00;98187.66;5068610;28;20032;-66
2022/01/31 06:42:27;;;;;;;9.23;2.47;;;;;;;4.18;100.00;98182.47;5076313;28;20074;-66
2022/01/31 06:44:52;;;;;;;10.95;2.30;;;;;;;4.32;100.00;98178.13;5069730;28;20316;-66
2022/01/31 06:47:21;;;;;;;3.42;1.75;;;;;;;4.18;100.00;98174.66;5075416;28;20320;-66
2022/01/31 06:49:46;;;;;;;5.57;1.90;;;;;;;4.25;100.00;98181.59;5071126;28;20017;-66
2022/01/31 06:52:12;;;;;;;9.35;2.47;;;;;;;4.41;99.74;98183.31;5064808;28;20029;-66
2022/01/31 06:54:37;;;;;;;7.70;2.20;;;;;;;4.32;99.76;98192.88;5082589;28;20031;-66
2022/01/31 06:57:05;;;;;;;7.55;1.92;;;;;;;4.18;99.80;98179.88;5067090;28;20044;-66
2022/01/31 06:59:31;;;;;;;6.85;1.63;;;;;;;4.18;100.00;98192.91;5064742;28;20090;-66
2022/01/31 07:01:56;;;;;;;4.25;1.73;;;;;;;4.21;100.00;98179.88;5065725;28;20318;-66
2022/01/31 07:04:21;;;;;;;3.50;1.58;;;;;;;4.23;99.63;98179.88;5072909;28;20101;-66
2022/01/31 07:06:47;;;;;;;4.95;1.83;;;;;;;4.28;100.00;98186.81;5083971;28;20021;-66
2022/01/31 07:09:13;;;;;;;3.22;1.67;;;;;;;4.19;99.96;98197.25;5076277;28;20013;-66
2022/01/31 07:11:41;;;;;;;8.13;1.63;;;;;;;4.30;100.00;98190.28;5064443;28;20020;-66
2022/01/31 07:14:23;;;;;;;4.22;1.85;;;;;;;4.34;99.83;98184.19;5073456;28;20252;-66
2022/01/31 07:16:49;;;;;;;2.88;1.75;;;;;;;4.40;99.93;98186.78;5069201;28;20212;-66
2022/01/31 07:19:14;;;;;;;14.10;2.33;;;;;;;4.40;99.44;98192.00;5064291;28;20048;-66
2022/01/31 07:21:48;;;;;;;6.22;1.50;;;;;;;4.36;99.51;98190.28;5065369;28;20021;-66
2022/01/31 07:24:44;;;;;;;7.63;1.77;;;;;;;4.50;99.07;98193.69;5071979;28;20042;-66
2022/01/31 07:27:09;;;;;;;3.75;1.77;;;;;;;4.40;99.54;98191.16;5072559;28;20020;-66
2022/01/31 07:29:35;;;;;;;7.75;1.70;;;;;;;4.47;99.38;98162.44;5071267;28;20017;-66
2022/01/31 07:32:01;;;;;;;4.43;1.42;;;;;;;4.45;98.94;98202.41;5074743;28;20021;-66
2022/01/31 07:34:26;;;;;;;3.00;1.40;;;;;;;4.50;99.07;98203.28;5069775;28;20024;-66
2022/01/31 07:36:53;;;;;;;7.60;1.50;;;;;;;4.53;98.69;98199.78;5086531;28;20320;-66
2022/01/31 07:39:19;;;;;;;2.92;1.98;;;;;;;4.60;99.00;98188.47;5075955;28;20024;-66
2022/01/31 07:41:46;;;;;;;3.85;1.75;;;;;;;4.49;99.39;98185.88;5069560;28;20065;-66
2022/01/31 07:44:12;;;;;;;3.45;1.52;;;;;;;4.60;99.49;98188.47;5080779;28;20111;-66
2022/01/31 07:46:38;;;;;;;6.05;1.92;;;;;;;4.68;99.48;98190.16;5082034;28;20024;-66
2022/01/31 07:49:05;;;;;;;2.50;1.63;;;;;;;4.45;99.07;98177.22;5075601;28;20020;-66
2022/01/31 07:51:31;;;;;;;1.80;1.10;;;;;;;4.53;99.40;98166.78;5071674;28;20028;-66
2022/01/31 07:53:57;;;;;;;2.42;1.40;;;;;;;4.58;99.38;98175.44;5083352;28;20304;-66
2022/01/31 07:56:22;;;;;;;6.00;1.90;;;;;;;4.52;99.50;98167.63;5076518;28;20023;-66
2022/01/31 07:58:48;;;;;;;3.17;1.77;;;;;;;4.50;99.28;98166.78;5083750;28;20113;-66
2022/01/31 08:01:14;;;;;;;2.50;1.65;;;;;;;4.57;99.49;98178.06;5083827;28;20032;-66
2022/01/31 08:03:40;;;;;;;2.78;1.80;;;;;;;4.58;99.15;98177.19;5083771;28;20255;-66
2022/01/31 08:06:06;;;;;;;4.63;1.90;;;;;;;4.71;98.78;98177.13;5083907;28;20388;-66
2022/01/31 08:08:32;;;;;;;4.18;1.80;;;;;;;4.80;98.68;98140.59;5077996;28;20040;-66
2022/01/31 08:10:59;;;;;;;4.20;2.22;;;;;;;4.72;98.81;98184.09;5063884;28;20088;-66
2022/01/31 08:13:25;;;;;;;5.55;2.28;;;;;;;4.80;98.73;98166.66;5074898;28;20090;-66
2022/01/31 08:18:34;;;;;;;3.67;1.83;;;;;;;5.04;98.02;98181.34;5083699;28;20021;-66
2022/01/31 08:21:00;;;;;;;10.65;1.98;;;;;;;5.17;98.17;98188.22;5083526;28;20054;-66
2022/01/31 08:23:25;;;;;;;6.47;1.92;;;;;;;5.31;97.82;98181.22;5083595;28;20020;-66
2022/01/31 08:25:52;;;;;;;3.88;1.95;;;;;;;5.23;97.65;98188.19;5080151;28;20346;-66
2022/01/31 08:28:21;;;;;;;1.95;1.50;;;;;;;5.16;97.91;98181.28;5094435;28;20337;-66
2022/01/31 08:30:56;;;;;;;3.42;1.98;;;;;;;5.06;97.92;98196.09;5087482;28;20023;-66
2022/01/31 08:33:42;;;;;;;9.05;2.10;;;;;;;5.20;97.58;98193.44;5087765;28;20283;-66
2022/01/31 08:36:08;;;;;;;3.75;2.08;;;;;;;5.05;97.53;98190.88;5073073;28;20296;-66
2022/01/31 08:38:36;;;;;;;8.52;2.58;;;;;;;5.08;97.88;98198.69;5067317;28;20028;-66
2022/01/31 08:41:02;;;;;;;5.28;2.17;;;;;;;5.16;97.89;98196.94;5067265;28;20070;-66
2022/01/31 08:43:28;;;;;;;5.20;2.15;;;;;;;5.36;97.68;98184.63;5067188;28;20044;-66
2022/01/31 08:45:56;;;;;;;3.60;2.22;;;;;;;5.45;97.39;98179.38;5079750;28;20034;-66
2022/01/31 08:48:23;;;;;;;7.15;2.00;;;;;;;5.59;95.85;98183.63;5068834;28;20324;-66
2022/01/31 08:50:48;;;;;;;3.53;2.10;;;;;;;5.66;96.30;98184.44;5067028;28;20020;-66
2022/01/31 08:53:14;;;;;;;7.63;1.70;;;;;;;5.91;96.01;98175.56;5067264;28;20028;-66
2022/01/31 08:55:47;;;;;;;4.90;1.95;;;;;;;6.11;94.58;98184.13;5067047;28;20049;-66
2022/01/31 08:58:12;;;;;;;8.90;2.45;;;;;;;5.92;94.16;98172.09;5070809;28;20035;-66
2022/01/31 09:00:38;;;;;;;4.85;2.50;;;;;;;5.77;94.51;98167.81;5078003;28;20032;-66
2022/01/31 09:05:38;;;;;;;5.72;2.30;;;;;;;5.89;94.67;98172.13;5068139;28;20021;-66
2022/01/31 09:08:04;;;;;;;5.00;1.98;;;;;;;5.87;95.06;98179.09;5066682;28;20332;-66
2022/01/31 09:10:29;;;;;;;2.65;1.58;;;;;;;5.87;95.80;98168.63;5066680;28;20024;-66
2022/01/31 09:12:55;;;;;;;4.78;2.30;;;;;;;5.88;95.88;98175.59;5066424;28;20344;-66
2022/01/31 09:15:21;;;;;;;8.63;1.92;;;;;;;5.86;94.93;98172.13;5066597;28;20088;-66
2022/01/31 09:17:47;;;;;;;10.57;2.60;;;;;;;5.74;95.16;98161.75;5085608;28;20301;-66
2022/01/31 09:20:12;;;;;;;8.27;1.83;;;;;;;5.86;95.32;98166.91;5086441;28;20024;-66
2022/01/31 09:22:38;;;;;;;10.73;2.33;;;;;;;5.84;94.61;98171.28;5086588;28;20025;-66
2022/01/31 09:25:04;;;;;;;4.03;1.67;;;;;;;5.84;94.87;98169.53;5086376;28;20118;-66
2022/01/31 09:27:30;;;;;;;9.27;2.03;;;;;;;5.91;94.26;98170.34;5086343;28;20021;-66
2022/01/31 09:29:56;;;;;;;13.70;1.92;;;;;;;6.07;93.38;98164.09;5086364;28;20027;-66
2022/01/31 09:32:24;;;;;;;4.80;1.85;;;;;;;6.04;92.92;98166.72;5081995;28;20200;-66
2022/01/31 09:34:50;;;;;;;12.68;2.45;;;;;;;6.26;92.66;98160.44;5084361;28;20305;-66
2022/01/31 09:37:19;;;;;;;3.03;1.40;;;;;;;6.11;92.18;98158.81;5075817;28;20024;-66
2022/01/31 09:39:46;;;;;;;4.22;1.80;;;;;;;6.06;93.18;98165.84;5071772;28;20024;-66
2022/01/31 09:42:15;;;;;;;3.90;1.40;;;;;;;6.02;93.11;98158.06;5078242;28;20331;-66
2022/01/31 09:45:03;;;;;;;4.22;1.50;;;;;;;5.94;93.16;98170.31;5074324;28;20031;-66
2022/01/31 09:50:13;;;;;;;6.85;1.48;;;;;;;5.99;91.46;98176.38;5069926;28;20032;-66
2022/01/31 09:52:38;;;;;;;4.72;1.48;;;;;;;6.04;90.84;98183.28;5076998;28;20316;-66
2022/01/31 09:55:04;;;;;;;4.93;1.60;;;;;;;5.95;90.59;98183.34;5069220;28;20025;-66
2022/01/31 09:57:30;;;;;;;4.75;1.48;;;;;;;5.90;91.39;98182.53;5094240;28;20073;-66
2022/01/31 09:59:55;;;;;;;12.43;1.65;;;;;;;5.87;91.67;98189.53;5066854;28;20318;-66
2022/01/31 10:02:21;;;;;;;8.02;1.83;;;;;;;5.92;91.48;98187.75;5065669;28;20020;-66
2022/01/31 10:04:48;;;;;;;4.25;1.38;;;;;;;5.88;91.17;98180.81;5065679;28;20063;-66
2022/01/31 10:07:15;;;;;;;8.82;1.50;;;;;;;5.92;90.60;98177.31;5067232;28;20013;-66
2022/01/31 10:09:46;;;;;;;3.65;1.30;;;;;;;6.06;90.07;98183.28;5083805;28;20016;-66
2022/01/31 10:17:44;;;;;;;7.88;1.73;;;;;;;5.98;88.84;98161.59;5096534;28;20020;-67
2022/01/31 10:20:29;;;;;;;6.07;0.95;;;;;;;5.99;89.19;98173.75;5085357;28;20024;-67
2022/01/31 10:22:56;;;;;;;2.85;1.42;;;;;;;6.00;89.14;98149.38;5084988;28;20040;-67
2022/01/31 10:25:23;;;;;;;3.38;1.20;;;;;;;6.12;88.59;98159.72;5069262;28;20025;-66
2022/01/31 10:27:51;;;;;;;4.32;1.45;;;;;;;6.29;88.20;98173.47;5086588;28;20026;-66
2022/01/31 10:30:26;;;;;;;5.47;1.27;;;;;;;6.42;87.81;98169.84;5076209;28;20032;-66
2022/01/31 10:32:54;;;;;;;4.88;0.90;;;;;;;6.37;86.79;98174.28;5065186;28;20092;-66
2022/01/31 10:35:23;;;;;;;6.28;0.93;;;;;;;6.37;86.14;98161.19;5064944;28;20025;-66
2022/01/31 10:37:54;;;;;;;10.38;1.20;;;;;;;6.29;86.30;98163.88;5065025;28;20031;-66
2022/01/31 10:54:07;;;;;;;4.82;1.15;;;;;;;6.70;85.05;98147.75;5072274;28;20036;-66
2022/01/31 10:56:56;;;;;;;3.55;0.82;;;;;;;6.79;84.71;98158.09;5064707;28;20025;-66
2022/01/31 10:59:37;;;;;;;6.10;1.13;;;;;;;6.76;85.36;98152.91;5068706;28;20025;-66
2022/01/31 11:02:05;;;;;;;3.00;0.75;;;;;;;6.73;83.58;98139.88;5070428;28;20033;-66
2022/01/31 11:04:33;;;;;;;2.22;1.20;;;;;;;6.74;83.96;98146.81;5084272;28;20304;-66
2022/01/31 11:07:01;;;;;;;8.65;1.20;;;;;;;6.76;83.77;98154.63;5075814;28;20028;-66
2022/01/31 11:09:29;;;;;;;2.60;0.93;;;;;;;6.71;84.87;98152.13;5064457;28;20309;-66
2022/01/31 11:11:54;;;;;;;7.60;1.85;;;;;;;6.73;83.92;98150.31;5064453;28;20048;-66
2022/01/31 11:14:20;;;;;;;6.72;1.10;;;;;;;6.75;84.49;98153.78;5069445;28;20056;-66
2022/01/31 11:16:47;;;;;;;5.78;1.40;;;;;;;6.78;84.16;98153.75;5074440;28;20028;-66
2022/01/31 11:19:16;;;;;;;8.38;1.40;;;;;;;6.74;83.88;98156.44;5067889;28;20087;-66
2022/01/31 11:21:45;;;;;;;11.27;1.73;;;;;;;6.74;83.91;98167.72;5064247;28;20092;-66
2022/01/31 11:24:23;;;;;;;5.97;1.17;;;;;;;6.68;84.33;98172.19;5064163;28;20229;-66
2022/01/31 11:26:52;;;;;;;4.80;1.38;;;;;;;6.52;83.65;98171.50;5064443;28;20135;-66
2022/01/31 11:29:19;;;;;;;8.10;1.05;;;;;;;6.49;85.20;98182.00;5069366;28;20021;-66
2022/01/31 11:31:45;;;;;;;5.57;1.35;;;;;;;6.39;84.64;98177.72;5084219;28;20017;-66
2022/01/31 11:34:11;;;;;;;3.88;1.00;;;;;;;6.40;85.56;98184.69;5084114;28;20062;-66
2022/01/31 11:36:39;;;;;;;2.03;1.00;;;;;;;6.37;85.57;98188.19;5086599;28;20020;-66
2022/01/31 11:39:13;;;;;;;5.03;0.88;;;;;;;6.51;84.46;98185.44;5068317;28;20080;-66
2022/01/31 11:41:46;;;;;;;7.85;1.45;;;;;;;6.34;85.65;98184.75;5068803;28;20066;-66
2022/01/31 11:44:22;;;;;;;5.07;1.02;;;;;;;6.51;85.09;98164.53;5073795;28;20189;-66
2022/01/31 11:46:49;;;;;;;3.92;1.35;;;;;;;6.56;84.93;98183.66;5065431;28;20079;-66
2022/01/31 11:49:15;;;;;;;4.78;1.15;;;;;;;6.75;84.85;98174.72;5064673;28;20027;-66
2022/01/31 11:52:07;;;;;;;2.08;1.00;;;;;;;6.73;84.73;98166.00;5082159;28;20020;-66
2022/01/31 11:55:04;;;;;;;11.15;1.88;;;;;;;6.81;83.05;98173.78;5073408;28;20087;-66
2022/01/31 11:57:34;;;;;;;13.45;1.52;;;;;;;6.78;83.31;98182.53;5073297;28;20087;-66
2022/01/31 12:00:11;;;;;;;8.10;0.95;;;;;;;6.84;82.70;98174.63;5077961;28;20032;-66
2022/01/31 12:02:46;;;;;;;6.35;1.13;;;;;;;6.69;84.02;98177.41;5070617;28;20028;-66
2022/01/31 12:05:18;;;;;;;6.47;1.55;;;;;;;6.70;82.56;98166.03;5076622;28;20028;-66
2022/01/31 12:07:45;;;;;;;6.43;1.25;;;;;;;6.53;84.59;98183.69;5071298;28;20074;-66